Time;durP1;ratioP1;P1;durP2;ratioP2;P2;SDS_P1;SDS_P2;PMS_P1;PMS_P2;Temp;Humidity;BMP_temperature;BMP_pressure;BME280_temperature;BME280_humidity;BME280_pressure;Samples;Min_cycle;Max_cycle;Signal;HPM_P1;HPM_P2
2023/07/12 00:01:00;;;;;;;2.20;1.50;;;;;;;13.41;85.11;98947.69;105477;1253;74322;-23
2023/07/12 00:03:29;;;;;;;2.10;1.80;;;;;;;13.28;84.50;98945.96;105672;1253;72685;-22
2023/07/12 00:05:56;;;;;;;3.80;1.80;;;;;;;13.00;84.86;98949.80;105524;1259;61186;-23
2023/07/12 00:08:27;;;;;;;1.60;1.50;;;;;;;12.69;85.83;98954.90;105571;1259;61114;-23
2023/07/12 00:10:56;;;;;;;2.60;1.40;;;;;;;12.44;87.01;98953.44;105657;1259;72705;-23
2023/07/12 00:13:25;;;;;;;1.40;1.30;;;;;;;12.79;87.38;98950.40;105636;1253;74179;-23
2023/07/12 00:15:52;;;;;;;1.60;1.30;;;;;;;13.21;85.79;98945.20;105668;1253;73385;-23
2023/07/12 00:18:22;;;;;;;2.50;1.90;;;;;;;13.16;84.63;98945.34;105438;1259;61152;-22
2023/07/12 00:20:50;;;;;;;2.60;1.70;;;;;;;12.90;84.88;98950.48;105503;1253;61094;-23
2023/07/12 00:23:18;;;;;;;3.40;1.90;;;;;;;12.57;85.77;98952.63;105616;1253;73822;-23
2023/07/12 00:25:46;;;;;;;1.70;1.40;;;;;;;12.30;87.49;98950.73;105673;1259;74217;-23
2023/07/12 00:28:25;;;;;;;1.60;1.30;;;;;;;12.63;88.18;98949.65;105673;1253;72407;-22
2023/07/12 00:30:56;;;;;;;2.80;1.50;;;;;;;13.06;86.27;98944.35;105548;1253;61052;-23
2023/07/12 00:33:23;;;;;;;2.80;2.00;;;;;;;12.98;85.47;98938.14;105485;1253;61188;-23
2023/07/12 00:35:50;;;;;;;2.50;1.60;;;;;;;12.72;86.25;98934.27;105610;1253;73626;-22
2023/07/12 00:38:22;;;;;;;6.10;1.90;;;;;;;12.44;86.66;98932.89;105535;1254;74356;-23
2023/07/12 00:40:55;;;;;;;3.70;1.30;;;;;;;12.21;87.53;98930.50;105503;1261;72660;-22
2023/07/12 00:43:35;;;;;;;1.40;1.20;;;;;;;12.62;87.44;98922.23;105592;1256;61221;-22
2023/07/12 00:46:04;;;;;;;3.40;1.80;;;;;;;13.08;85.73;98918.55;105690;1259;61179;-22
2023/07/12 00:48:32;;;;;;;2.10;1.90;;;;;;;13.05;85.19;98912.91;105658;1259;72418;-22
2023/07/12 00:50:59;;;;;;;2.40;2.00;;;;;;;12.83;85.63;98911.27;105605;1261;74369;-22
2023/07/12 00:53:33;;;;;;;2.10;1.80;;;;;;;12.58;86.60;98912.86;105379;1257;73204;-22
2023/07/12 00:56:06;;;;;;;2.80;1.70;;;;;;;12.37;87.19;98918.55;105459;1259;61184;-22
2023/07/12 00:58:36;;;;;;;1.90;1.50;;;;;;;12.78;87.01;98914.30;105348;1258;61178;-22
2023/07/12 01:01:03;;;;;;;2.90;1.70;;;;;;;13.21;85.16;98911.56;105590;1253;73676;-24
2023/07/12 01:03:33;;;;;;;2.20;1.90;;;;;;;13.17;84.59;98910.88;105716;1258;74351;-22
2023/07/12 01:06:00;;;;;;;2.70;1.60;;;;;;;12.93;84.96;98910.48;105368;1260;72573;-22
2023/07/12 01:08:29;;;;;;;3.00;2.40;;;;;;;12.67;85.43;98910.85;105627;1260;61509;-22
2023/07/12 01:10:57;;;;;;;3.90;2.70;;;;;;;12.42;85.27;98916.92;105663;1253;61182;-22
2023/07/12 01:13:24;;;;;;;3.40;2.10;;;;;;;12.19;85.39;98918.08;105629;1253;73712;-22
2023/07/12 01:15:51;;;;;;;2.70;2.00;;;;;;;12.59;85.30;98917.82;105729;1257;74847;-22
2023/07/12 01:18:19;;;;;;;3.50;2.70;;;;;;;13.05;83.67;98910.20;105254;1253;71401;-22
2023/07/12 01:20:46;;;;;;;3.30;2.50;;;;;;;13.04;82.85;98905.27;105476;1253;61077;-22
2023/07/12 01:23:13;;;;;;;3.90;2.50;;;;;;;12.82;82.69;98899.95;105632;1258;61123;-22
2023/07/12 01:25:43;;;;;;;1.50;1.30;;;;;;;12.52;82.95;98894.35;105582;1259;73894;-22
2023/07/12 01:28:11;;;;;;;2.40;1.70;;;;;;;12.22;83.53;98896.10;105672;1253;73041;-22
2023/07/12 01:30:38;;;;;;;1.20;1.10;;;;;;;11.94;83.86;98888.99;105762;1253;72612;-23
2023/07/12 01:33:06;;;;;;;2.20;1.70;;;;;;;12.29;84.62;98888.82;105427;1253;61081;-22
2023/07/12 01:35:33;;;;;;;3.20;2.60;;;;;;;12.74;83.08;98887.47;105801;1258;61552;-23
2023/07/12 01:38:00;;;;;;;5.20;4.10;;;;;;;12.75;82.14;98894.55;103646;1253;2748626;-22
2023/07/12 01:40:29;;;;;;;7.70;4.80;;;;;;;12.54;82.15;98895.13;105620;1253;74387;-22
2023/07/12 01:42:56;;;;;;;9.10;7.20;;;;;;;12.25;82.54;98898.40;105710;1257;72643;-22
2023/07/12 01:45:23;;;;;;;12.50;9.60;;;;;;;11.95;83.23;98897.25;105636;1254;61144;-22
2023/07/12 01:47:50;;;;;;;4.20;3.00;;;;;;;11.69;83.52;98901.08;105790;1259;61097;-21
2023/07/12 01:50:17;;;;;;;4.00;2.10;;;;;;;11.99;83.63;98902.44;105649;1253;74351;-21
2023/07/12 01:52:44;;;;;;;3.00;2.00;;;;;;;12.38;82.18;98897.23;105848;1258;74335;-23
2023/07/12 01:55:11;;;;;;;2.60;2.10;;;;;;;12.36;81.68;98897.44;105736;1253;72637;-21
2023/07/12 01:57:39;;;;;;;6.30;2.20;;;;;;;12.11;82.28;98893.73;105562;1253;61143;-21
2023/07/12 02:00:07;;;;;;;4.00;3.10;;;;;;;11.84;83.21;98896.30;105506;1259;61203;-21
2023/07/12 02:02:42;;;;;;;6.60;5.70;;;;;;;11.57;83.78;98894.69;105578;1259;73617;-21
2023/07/12 02:05:10;;;;;;;2.60;2.10;;;;;;;11.39;85.34;98895.14;105540;1258;74298;-21
2023/07/12 02:07:37;;;;;;;2.90;2.40;;;;;;;11.86;85.48;98898.73;105719;1256;72626;-21
2023/07/12 02:10:15;;;;;;;4.50;3.40;;;;;;;12.41;84.16;98903.30;105786;1254;61113;-21
2023/07/12 02:12:43;;;;;;;2.60;1.80;;;;;;;12.40;81.79;98908.43;105556;1259;61313;-21
2023/07/12 02:15:11;;;;;;;4.30;2.40;;;;;;;12.10;80.38;98908.83;105763;1253;72579;-21
2023/07/12 02:17:39;;;;;;;5.70;4.30;;;;;;;11.76;80.81;98910.06;105586;1253;74332;-21
2023/07/12 02:20:08;;;;;;;6.70;5.90;;;;;;;11.50;81.92;98910.44;105652;1259;72467;-21
2023/07/12 02:22:37;;;;;;;2.90;1.70;;;;;;;11.31;84.01;98913.02;105573;1253;61112;-21
2023/07/12 02:25:05;;;;;;;1.80;1.60;;;;;;;11.77;85.11;98914.64;105683;1260;61180;-21
2023/07/12 02:27:34;;;;;;;2.80;2.00;;;;;;;12.31;83.78;98918.95;105629;1262;72736;-21
2023/07/12 02:30:01;;;;;;;1.90;1.50;;;;;;;12.35;82.73;98918.23;105797;1258;74407;-21
2023/07/12 02:32:29;;;;;;;4.80;2.10;;;;;;;12.23;83.30;98919.48;105733;1253;72702;-21
2023/07/12 02:34:56;;;;;;;3.40;1.70;;;;;;;12.10;83.95;98921.36;105569;1254;61162;-21
2023/07/12 02:37:23;;;;;;;3.40;2.10;;;;;;;11.94;83.37;98920.88;105714;1259;61124;-21
2023/07/12 02:39:50;;;;;;;3.30;1.60;;;;;;;11.78;83.39;98923.08;105830;1254;73692;-21
2023/07/12 02:42:17;;;;;;;1.50;1.20;;;;;;;12.24;83.43;98924.77;105792;1257;74343;-21
2023/07/12 02:44:44;;;;;;;1.90;1.70;;;;;;;12.92;81.52;98922.94;105707;1258;73214;-21
2023/07/12 02:47:11;;;;;;;2.90;2.40;;;;;;;13.20;79.65;98923.16;105697;1254;61117;-21
2023/07/12 02:49:39;;;;;;;3.00;2.10;;;;;;;13.15;77.93;98928.85;105772;1257;61105;-21
2023/07/12 02:52:07;;;;;;;2.50;1.80;;;;;;;12.91;77.58;98933.05;105751;1253;73839;-21
2023/07/12 02:54:36;;;;;;;4.20;1.70;;;;;;;12.75;78.12;98934.42;105656;1253;74258;-21
2023/07/12 02:57:04;;;;;;;3.10;1.10;;;;;;;12.77;77.70;98936.01;105746;1257;72678;-21
2023/07/12 02:59:31;;;;;;;1.20;1.10;;;;;;;13.36;76.88;98938.88;105616;1260;61206;-21
2023/07/12 03:01:58;;;;;;;3.10;1.30;;;;;;;14.14;74.96;98939.34;105660;1258;61108;-21
2023/07/12 03:04:25;;;;;;;3.30;1.60;;;;;;;14.46;73.76;98940.25;105793;1257;73808;-21
2023/07/12 03:06:52;;;;;;;2.30;1.30;;;;;;;14.57;73.31;98945.65;105543;1257;74013;-21
2023/07/12 03:09:19;;;;;;;3.10;1.80;;;;;;;14.54;73.52;98942.38;105534;1253;73275;-21
2023/07/12 03:11:46;;;;;;;2.40;1.70;;;;;;;14.43;74.12;98948.20;105559;1254;61122;-21
2023/07/12 03:14:18;;;;;;;2.70;1.70;;;;;;;14.27;74.25;98947.17;105599;1259;61273;-21
2023/07/12 03:16:45;;;;;;;1.50;1.30;;;;;;;14.25;74.78;98948.77;105706;1254;73817;-22
2023/07/12 03:19:13;;;;;;;1.80;1.50;;;;;;;14.93;74.70;98946.46;105606;1258;74313;-21
2023/07/12 03:21:40;;;;;;;2.50;1.30;;;;;;;15.75;72.34;98942.39;105639;1259;72754;-21
2023/07/12 03:24:08;;;;;;;2.90;1.80;;;;;;;16.04;71.07;98939.80;105662;1258;61150;-21
2023/07/12 03:26:35;;;;;;;1.90;1.70;;;;;;;16.06;69.99;98929.95;105466;1255;61174;-22
2023/07/12 03:29:03;;;;;;;2.50;2.30;;;;;;;15.82;70.49;98932.27;105622;1253;73792;-22
2023/07/12 03:31:30;;;;;;;7.50;3.00;;;;;;;15.62;71.60;98931.15;105284;1261;74308;-21
2023/07/12 03:33:57;;;;;;;2.50;2.00;;;;;;;15.70;72.07;98931.98;105569;1257;71436;-21
2023/07/12 03:36:28;;;;;;;3.00;1.70;;;;;;;15.78;72.14;98935.26;105567;1253;62021;-21
2023/07/12 03:38:55;;;;;;;5.50;2.20;;;;;;;16.64;71.76;98927.05;105660;1254;61189;-21
2023/07/12 03:41:22;;;;;;;4.10;2.30;;;;;;;17.57;68.45;98920.59;105564;1257;73788;-21
2023/07/12 03:43:49;;;;;;;5.50;2.30;;;;;;;18.00;67.06;98924.59;105579;1257;74352;-22
2023/07/12 03:46:16;;;;;;;3.40;3.10;;;;;;;18.10;63.86;98932.15;105723;1259;72541;-21
2023/07/12 03:48:43;;;;;;;34.90;26.60;;;;;;;18.15;65.35;98939.64;105570;1253;61075;-22
2023/07/12 03:51:11;;;;;;;25.30;20.10;;;;;;;18.12;63.81;98943.59;105564;1256;61103;-21
2023/07/12 03:53:37;;;;;;;23.90;18.10;;;;;;;18.18;65.57;98943.91;105552;1270;72302;-21
2023/07/12 03:56:04;;;;;;;16.20;12.20;;;;;;;18.19;65.25;98941.66;105762;1257;74906;-22
2023/07/12 03:58:34;;;;;;;15.60;12.80;;;;;;;18.02;65.24;98942.73;105763;1259;72652;-22
2023/07/12 04:01:03;;;;;;;18.30;11.10;;;;;;;17.72;66.64;98945.45;105594;1255;61101;-21
2023/07/12 04:03:31;;;;;;;5.80;4.80;;;;;;;17.61;68.11;98950.46;105425;1258;61234;-21
2023/07/12 04:05:58;;;;;;;5.40;4.50;;;;;;;18.00;67.47;98952.58;105593;1259;73633;-21
2023/07/12 04:08:25;;;;;;;4.10;3.40;;;;;;;18.68;66.94;98950.77;105700;1259;74213;-21
2023/07/12 04:10:53;;;;;;;5.20;3.50;;;;;;;18.83;65.05;98958.04;105805;1255;72740;-22
2023/07/12 04:13:21;;;;;;;3.40;2.60;;;;;;;18.75;66.01;98956.15;105623;1259;61173;-22
2023/07/12 04:15:51;;;;;;;4.50;3.80;;;;;;;18.82;66.05;98957.03;105638;1261;61166;-21
2023/07/12 04:18:18;;;;;;;5.80;4.10;;;;;;;18.92;65.61;98956.69;105686;1253;71598;-22
2023/07/12 04:20:45;;;;;;;4.60;4.10;;;;;;;18.90;65.80;98958.80;105736;1253;74333;-21
2023/07/12 04:23:12;;;;;;;5.90;4.50;;;;;;;19.03;65.64;98961.71;105586;1258;72671;-22
2023/07/12 04:25:39;;;;;;;5.10;4.40;;;;;;;19.24;64.92;98965.45;105349;1255;61039;-22
2023/07/12 04:28:06;;;;;;;4.20;3.40;;;;;;;19.36;64.49;98965.80;105623;1267;61162;-22
2023/07/12 04:30:34;;;;;;;5.00;3.00;;;;;;;19.33;64.11;98968.48;105676;1257;73546;-22
2023/07/12 04:33:03;;;;;;;3.70;2.80;;;;;;;19.43;64.56;98966.41;105584;1259;72815;-21
2023/07/12 04:35:32;;;;;;;4.80;2.90;;;;;;;19.50;64.30;98964.79;105669;1256;72450;-21
2023/07/12 04:37:58;;;;;;;7.80;2.70;;;;;;;19.56;64.66;98962.45;105791;1253;61043;-22
2023/07/12 04:40:25;;;;;;;3.40;2.50;;;;;;;19.71;64.43;98961.53;105716;1254;61097;-21
2023/07/12 04:42:52;;;;;;;3.80;2.70;;;;;;;19.95;63.72;98956.92;105786;1257;73796;-22
2023/07/12 04:45:19;;;;;;;2.60;2.40;;;;;;;19.97;63.24;98953.45;105693;1258;74343;-23
2023/07/12 04:47:46;;;;;;;4.60;2.40;;;;;;;19.82;64.68;98954.82;105730;1259;72652;-23
2023/07/12 04:50:13;;;;;;;2.80;2.50;;;;;;;19.66;64.68;98955.29;105613;1254;61177;-22
2023/07/12 04:52:40;;;;;;;2.50;2.20;;;;;;;19.51;64.27;98956.75;105551;1255;61143;-23
2023/07/12 04:55:25;;;;;;;6.20;2.50;;;;;;;19.34;65.48;98960.58;105683;1258;73694;-23
2023/07/12 04:57:52;;;;;;;3.50;2.00;;;;;;;19.25;66.05;98961.58;105655;1259;73437;-23
2023/07/12 05:00:19;;;;;;;3.20;2.10;;;;;;;19.16;65.73;98952.68;105684;1259;72595;-23
2023/07/12 05:02:48;;;;;;;2.70;2.00;;;;;;;19.11;65.50;98943.02;105513;1259;61202;-24
2023/07/12 05:05:16;;;;;;;4.60;2.40;;;;;;;19.10;65.80;98937.70;105393;1261;61562;-23
2023/07/12 05:07:44;;;;;;;4.00;2.70;;;;;;;18.96;66.34;98938.96;105761;1257;73774;-23
2023/07/12 05:10:11;;;;;;;4.20;2.60;;;;;;;18.77;66.59;98939.88;105665;1256;74607;-22
2023/07/12 05:12:40;;;;;;;4.50;2.00;;;;;;;18.67;67.30;98940.38;105589;1259;72570;-23
2023/07/12 05:15:09;;;;;;;4.00;1.70;;;;;;;18.59;67.57;98938.64;105558;1259;61202;-23
2023/07/12 05:17:37;;;;;;;5.70;2.20;;;;;;;19.19;67.50;98945.35;105455;1260;61143;-22
2023/07/12 05:20:05;;;;;;;2.20;2.00;;;;;;;20.17;64.72;98950.92;105689;1260;73681;-22
2023/07/12 05:22:33;;;;;;;2.80;2.30;;;;;;;20.67;62.32;98958.45;105731;1255;74216;-23
2023/07/12 05:25:01;;;;;;;3.60;2.70;;;;;;;20.90;61.28;98961.23;105657;1258;72710;-22
2023/07/12 05:27:28;;;;;;;3.70;2.70;;;;;;;21.08;61.56;98963.41;105508;1260;61255;-23
2023/07/12 05:29:55;;;;;;;4.60;3.00;;;;;;;20.98;62.93;98961.76;105628;1266;61157;-23
2023/07/12 05:32:22;;;;;;;4.00;2.70;;;;;;;20.80;63.31;98956.06;105695;1254;73682;-23
2023/07/12 05:34:48;;;;;;;2.90;2.40;;;;;;;20.72;63.73;98952.38;105611;1257;74896;-22
2023/07/12 05:37:16;;;;;;;3.20;2.50;;;;;;;20.49;62.37;98947.46;105680;1257;72688;-22
2023/07/12 05:39:43;;;;;;;4.80;2.30;;;;;;;20.41;62.18;98946.25;105545;1256;61133;-23
2023/07/12 05:42:10;;;;;;;7.40;3.80;;;;;;;20.58;62.75;98943.08;105726;1259;61161;-22
2023/07/12 05:44:38;;;;;;;7.40;5.10;;;;;;;20.79;63.00;98946.21;105790;1254;74001;-23
2023/07/12 05:47:06;;;;;;;7.90;5.30;;;;;;;20.99;62.44;98947.31;105677;1263;74408;-22
2023/07/12 05:49:35;;;;;;;5.90;4.80;;;;;;;21.19;61.21;98947.77;105537;1259;72584;-22
2023/07/12 05:52:03;;;;;;;4.90;4.40;;;;;;;21.23;60.33;98941.04;105732;1259;61098;-22
2023/07/12 05:56:50;;;;;;;5.60;4.80;;;;;;;21.78;59.62;98937.60;102667;1292;600390;-21
2023/07/12 05:59:18;;;;;;;4.50;4.00;;;;;;;21.96;59.56;98933.19;105534;1258;61136;-21
2023/07/12 06:01:46;;;;;;;4.90;3.00;;;;;;;22.03;57.28;98929.52;105422;1257;61161;-21
2023/07/12 06:04:14;;;;;;;4.90;3.40;;;;;;;22.11;57.24;98924.08;105556;1262;72168;-21
2023/07/12 06:06:42;;;;;;;6.00;4.00;;;;;;;22.26;57.20;98926.58;105558;1263;73484;-21
2023/07/12 06:09:09;;;;;;;6.00;3.50;;;;;;;22.33;57.05;98922.80;105551;1257;71476;-21
2023/07/12 06:11:37;;;;;;;8.70;3.60;;;;;;;22.14;56.17;98920.34;103697;1257;2627119;-22
2023/07/12 06:14:05;;;;;;;3.80;3.10;;;;;;;22.34;55.86;98919.80;105606;1257;61085;-21
2023/07/12 06:16:32;;;;;;;4.60;3.10;;;;;;;22.42;56.27;98922.79;105592;1257;71994;-21
2023/07/12 06:19:03;;;;;;;5.60;4.10;;;;;;;22.43;55.81;98923.41;105510;1257;73343;-22
2023/07/12 06:21:31;;;;;;;6.60;4.60;;;;;;;22.27;55.08;98919.69;105487;1257;71451;-22
2023/07/12 06:23:59;;;;;;;6.70;5.10;;;;;;;22.21;57.23;98923.64;105599;1260;61156;-24
2023/07/12 06:26:27;;;;;;;6.40;5.10;;;;;;;22.14;55.81;98933.39;105628;1258;61173;-22
2023/07/12 06:28:55;;;;;;;7.10;5.20;;;;;;;22.10;56.62;98932.08;105434;1260;71638;-23
2023/07/12 06:31:23;;;;;;;6.10;4.80;;;;;;;22.10;55.78;98927.35;105440;1257;73728;-22
2023/07/12 06:33:50;;;;;;;4.20;3.00;;;;;;;22.05;56.16;98927.83;105654;1257;70167;-22
2023/07/12 06:36:18;;;;;;;4.40;2.70;;;;;;;21.83;56.13;98931.58;105597;1261;61086;-22
2023/07/12 06:38:46;;;;;;;2.80;2.30;;;;;;;21.57;57.14;98925.82;105544;1263;61172;-22
2023/07/12 06:41:14;;;;;;;4.40;2.10;;;;;;;21.57;58.19;98922.41;105610;1257;71879;-22
2023/07/12 06:43:41;;;;;;;5.20;2.00;;;;;;;21.70;58.29;98918.77;105608;1257;74277;-22
2023/07/12 06:46:09;;;;;;;6.00;2.80;;;;;;;21.82;57.35;98912.40;105538;1262;71863;-22
2023/07/12 06:48:36;;;;;;;3.80;3.40;;;;;;;22.06;57.36;98899.29;105481;1262;61157;-22
2023/07/12 06:51:04;;;;;;;3.00;2.60;;;;;;;22.13;58.16;98895.81;105558;1257;61099;-23
2023/07/12 06:53:32;;;;;;;2.90;2.60;;;;;;;22.28;56.11;98895.20;105548;1261;72803;-22
2023/07/12 06:56:00;;;;;;;3.10;2.60;;;;;;;22.38;56.87;98893.45;105480;1262;73108;-22
2023/07/12 07:06:10;;;;;;;4.00;2.10;;;;;;;22.94;53.27;98886.55;102547;1295;600387;-21
2023/07/12 07:08:38;;;;;;;2.80;2.20;;;;;;;23.15;53.45;98882.58;104809;1272;61158;-21
2023/07/12 07:11:05;;;;;;;2.40;1.70;;;;;;;23.35;51.95;98875.45;104800;1267;61134;-21
2023/07/12 07:13:34;;;;;;;2.20;1.80;;;;;;;23.48;53.06;98874.11;104871;1270;71993;-21
2023/07/12 07:16:01;;;;;;;2.80;1.80;;;;;;;23.56;53.32;98870.34;104855;1270;73052;-21
2023/07/12 07:25:26;;;;;;;2.50;1.90;;;;;;;23.42;51.74;98858.86;102604;1295;600078;-21
2023/07/12 07:27:54;;;;;;;2.20;2.00;;;;;;;23.27;51.12;98862.98;104785;1267;61318;-21
2023/07/12 07:38:01;;;;;;;4.80;1.90;;;;;;;22.99;52.56;98866.56;102678;1292;600344;-21
2023/07/12 07:40:29;;;;;;;3.50;1.50;;;;;;;22.77;52.34;98868.48;104862;1266;61167;-21
2023/07/12 07:42:56;;;;;;;1.90;1.30;;;;;;;22.42;52.10;98870.20;104846;1269;61128;-21
2023/07/12 07:45:24;;;;;;;2.30;1.60;;;;;;;22.16;51.04;98869.71;104792;1267;72178;-22
2023/07/12 07:47:52;;;;;;;14.10;2.10;;;;;;;22.00;52.02;98868.58;104816;1274;74315;-21
2023/07/12 07:50:20;;;;;;;4.50;1.80;;;;;;;21.96;52.10;98867.60;104624;1266;71433;-21
2023/07/12 07:52:48;;;;;;;1.80;1.50;;;;;;;21.92;52.06;98867.25;102888;1266;2634816;-21
2023/07/12 07:55:16;;;;;;;4.80;1.80;;;;;;;21.97;51.50;98866.22;104827;1267;61077;-21
2023/07/12 07:57:44;;;;;;;3.20;1.50;;;;;;;22.27;51.17;98863.39;104782;1266;72369;-24
2023/07/12 08:00:13;;;;;;;2.00;1.60;;;;;;;22.70;49.79;98862.70;104878;1271;74323;-21
2023/07/12 08:02:43;;;;;;;1.70;1.30;;;;;;;23.03;49.39;98866.91;104784;1271;70940;-22
2023/07/12 08:05:12;;;;;;;2.40;1.70;;;;;;;23.20;48.91;98866.19;104698;1266;61171;-22
2023/07/12 08:07:42;;;;;;;2.60;1.60;;;;;;;23.35;47.68;98864.38;104747;1270;61124;-22
2023/07/12 08:10:11;;;;;;;3.80;1.70;;;;;;;23.44;47.17;98860.07;105264;1265;73043;-21
2023/07/12 08:20:16;;;;;;;8.10;1.40;;;;;;;23.60;42.25;98874.20;102764;1292;600335;-21
2023/07/12 08:22:43;;;;;;;4.00;1.60;;;;;;;24.06;43.38;98883.11;104843;1267;61090;-23
2023/07/12 08:25:13;;;;;;;2.80;1.50;;;;;;;24.04;41.97;98895.78;104861;1272;61206;-22
2023/07/12 08:35:19;;;;;;;2.00;1.50;;;;;;;24.26;42.43;98896.73;102655;1292;600236;-21
2023/07/12 08:37:55;;;;;;;3.10;1.40;;;;;;;24.07;43.46;98885.41;104797;1271;61168;-21
2023/07/12 08:40:22;;;;;;;2.40;1.30;;;;;;;24.00;44.49;98883.20;104860;1267;61035;-21
2023/07/12 08:42:50;;;;;;;3.20;1.80;;;;;;;23.98;45.53;98877.09;104752;1267;70960;-21
2023/07/12 08:45:25;;;;;;;2.70;1.40;;;;;;;24.30;44.02;98876.16;104733;1272;74472;-21
2023/07/12 08:47:57;;;;;;;3.10;1.30;;;;;;;24.67;43.17;98872.23;102881;1264;2756292;-22
2023/07/12 08:50:27;;;;;;;2.30;1.40;;;;;;;24.84;42.81;98878.54;105150;1267;61579;-21
2023/07/12 08:52:55;;;;;;;2.90;1.60;;;;;;;24.97;42.24;98876.70;104968;1260;61167;-22
2023/07/12 08:55:24;;;;;;;3.80;1.50;;;;;;;24.88;42.89;98874.32;105176;1260;71142;-22
2023/07/12 08:58:05;;;;;;;1.70;1.40;;;;;;;25.06;42.84;98871.99;105122;1268;73224;-22
2023/07/12 09:00:34;;;;;;;5.40;1.60;;;;;;;25.09;41.39;98863.13;105200;1263;72651;-22
2023/07/12 09:10:56;;;;;;;2.00;1.60;;;;;;;25.71;42.82;98856.56;102622;1292;600366;-21
2023/07/12 09:13:37;;;;;;;2.70;2.10;;;;;;;25.57;42.05;98852.29;104786;1266;61041;-21
2023/07/12 09:16:37;;;;;;;2.70;1.60;;;;;;;25.07;43.49;98852.84;104807;1266;61185;-21
2023/07/12 09:19:13;;;;;;;1.90;1.70;;;;;;;24.57;43.86;98853.86;104594;1272;72208;-22
2023/07/12 09:21:41;;;;;;;3.70;1.70;;;;;;;24.83;45.79;98849.83;104789;1273;73476;-21
2023/07/12 09:24:14;;;;;;;3.70;1.40;;;;;;;25.62;45.78;98838.97;102905;1263;2807450;-21
2023/07/12 09:26:42;;;;;;;2.60;1.90;;;;;;;26.25;41.43;98835.54;104820;1264;61071;-21
2023/07/12 09:29:15;;;;;;;3.10;1.80;;;;;;;26.25;40.69;98836.82;104925;1263;61100;-21
2023/07/12 09:31:43;;;;;;;2.40;1.70;;;;;;;25.95;41.77;98836.77;104839;1272;72229;-21
2023/07/12 09:34:21;;;;;;;1.40;1.30;;;;;;;25.52;42.54;98832.86;105719;1259;74305;-21
2023/07/12 09:36:58;;;;;;;7.60;3.60;;;;;;;25.05;43.93;98836.27;105726;1254;72662;-21
2023/07/12 09:39:26;;;;;;;5.00;2.00;;;;;;;24.99;44.54;98838.33;105648;1261;61630;-21
2023/07/12 09:41:59;;;;;;;1.90;1.70;;;;;;;25.20;42.94;98838.42;105502;1256;61096;-24
2023/07/12 09:44:27;;;;;;;2.80;1.60;;;;;;;25.65;43.59;98830.30;105256;1262;72960;-23
2023/07/12 09:54:55;;;;;;;2.10;1.80;;;;;;;24.37;44.91;98837.11;102707;1292;599482;-22
2023/07/12 09:57:26;;;;;;;3.00;1.40;;;;;;;24.49;44.99;98835.36;104835;1264;61123;-22
2023/07/12 10:00:16;;;;;;;2.70;1.70;;;;;;;24.88;43.75;98827.94;104847;1264;61174;-22
2023/07/12 10:03:07;;;;;;;1.90;1.60;;;;;;;25.34;45.37;98825.08;104771;1263;72247;-23
2023/07/12 10:05:35;;;;;;;2.30;1.60;;;;;;;26.07;43.26;98813.67;104744;1270;74505;-22
2023/07/12 10:08:09;;;;;;;4.80;1.90;;;;;;;25.98;40.79;98812.39;102757;1268;2829577;-22
2023/07/12 10:10:48;;;;;;;3.30;1.80;;;;;;;25.58;41.44;98817.81;104909;1263;61087;-22
2023/07/12 10:13:15;;;;;;;2.00;1.80;;;;;;;25.31;41.90;98813.92;104919;1270;61190;-23
2023/07/12 10:15:43;;;;;;;2.90;1.60;;;;;;;25.06;42.43;98814.84;104913;1263;72237;-22
2023/07/12 10:18:22;;;;;;;7.80;1.70;;;;;;;25.34;42.98;98809.52;104768;1263;73347;-22
2023/07/12 10:20:50;;;;;;;4.50;2.00;;;;;;;25.38;43.48;98811.98;105080;1263;71684;-22
2023/07/12 10:23:25;;;;;;;3.80;1.90;;;;;;;25.22;42.76;98804.70;105143;1263;61141;-22
2023/07/12 10:25:56;;;;;;;2.00;1.80;;;;;;;24.90;43.27;98804.73;104903;1269;61785;-23
2023/07/12 10:36:05;;;;;;;30.00;3.20;;;;;;;24.35;45.55;98807.31;102674;1293;599536;-22
2023/07/12 10:38:33;;;;;;;2.40;2.10;;;;;;;23.90;47.39;98807.23;104872;1268;61139;-22
2023/07/12 10:41:10;;;;;;;4.70;1.90;;;;;;;23.35;49.34;98807.81;104957;1264;61125;-21
2023/07/12 10:43:44;;;;;;;3.40;2.00;;;;;;;23.19;49.74;98808.55;104858;1266;70929;-21
2023/07/12 10:46:35;;;;;;;3.50;1.80;;;;;;;23.04;50.82;98805.35;104919;1261;74326;-21
2023/07/12 10:49:36;;;;;;;;;;;;;;;23.62;49.95;98803.73;103585;1260;2745820;-22
2023/07/12 10:52:10;;;;;;;2.70;1.70;;;;;;;24.59;47.64;98790.75;105533;1253;61167;-22
2023/07/12 10:54:44;;;;;;;2.50;1.90;;;;;;;24.85;45.92;98786.89;105656;1255;61155;-22
2023/07/12 10:57:27;;;;;;;2.30;1.70;;;;;;;25.24;45.40;98782.25;105365;1254;70965;-23
2023/07/12 11:00:05;;;;;;;2.60;1.70;;;;;;;25.50;44.69;98778.23;105604;1261;73159;-22
2023/07/12 11:02:50;;;;;;;3.30;1.70;;;;;;;25.66;45.48;98775.56;105334;1260;71404;-22
2023/07/12 11:05:36;;;;;;;2.20;1.70;;;;;;;26.42;44.56;98768.27;105629;1258;61025;-23
2023/07/12 11:08:04;;;;;;;2.30;1.80;;;;;;;26.75;41.40;98764.37;105579;1259;61433;-22
2023/07/12 11:10:35;;;;;;;2.00;1.50;;;;;;;26.75;41.53;98763.45;105726;1254;72998;-22
2023/07/12 11:13:11;;;;;;;2.70;1.80;;;;;;;26.69;40.79;98758.70;109121;1253;73238;-23
2023/07/12 11:15:51;;;;;;;2.40;1.60;;;;;;;27.13;41.44;98761.11;109164;1253;72632;-24
2023/07/12 11:18:24;;;;;;;3.40;1.80;;;;;;;27.21;42.08;98755.79;109032;1253;59018;-23
2023/07/12 11:21:44;;;;;;;2.60;1.70;;;;;;;26.95;41.19;98752.51;109162;1253;59069;-23
2023/07/12 11:24:24;;;;;;;5.80;1.90;;;;;;;27.18;42.47;98746.72;109219;1254;73046;-24
2023/07/12 11:26:57;;;;;;;2.60;1.80;;;;;;;26.43;41.51;98747.35;109189;1253;73514;-23
2023/07/12 11:29:24;;;;;;;4.50;2.10;;;;;;;25.40;43.09;98746.27;109134;1253;71466;-24
2023/07/12 11:32:30;;;;;;;8.10;2.50;;;;;;;25.53;44.53;98748.55;109246;1257;58776;-23
2023/07/12 11:35:00;;;;;;;2.50;1.70;;;;;;;25.72;43.85;98744.04;109329;1253;58862;-23
2023/07/12 11:37:34;;;;;;;2.30;1.90;;;;;;;26.57;43.86;98742.82;109102;1253;73033;-23
2023/07/12 11:40:07;;;;;;;2.30;1.50;;;;;;;27.11;41.92;98739.37;109084;1253;72540;-23
2023/07/12 11:42:34;;;;;;;2.60;1.90;;;;;;;27.27;39.63;98739.11;109134;1253;71541;-23
2023/07/12 11:45:03;;;;;;;4.70;1.90;;;;;;;27.24;41.34;98738.48;109164;1256;60960;-24
2023/07/12 11:47:33;;;;;;;3.90;2.40;;;;;;;26.38;41.39;98738.09;109132;1254;60071;-23
2023/07/12 11:50:01;;;;;;;3.40;2.20;;;;;;;26.10;42.67;98732.59;109056;1257;71786;-23
2023/07/12 11:52:29;;;;;;;1.70;1.60;;;;;;;25.87;43.52;98730.45;109434;1251;72995;-23
2023/07/12 11:54:57;;;;;;;2.00;1.90;;;;;;;25.60;43.31;98729.97;109454;1251;72652;-23
2023/07/12 11:57:24;;;;;;;4.10;2.30;;;;;;;25.38;43.53;98726.54;109583;1251;58781;-23
2023/07/12 11:59:53;;;;;;;2.50;2.30;;;;;;;25.32;44.29;98731.61;109511;1251;58779;-23
2023/07/12 12:02:21;;;;;;;4.30;2.10;;;;;;;25.23;44.74;98733.27;109482;1251;73011;-23
2023/07/12 12:04:49;;;;;;;3.70;2.20;;;;;;;25.30;44.76;98727.31;109628;1251;74286;-23
2023/07/12 12:07:24;;;;;;;3.00;2.00;;;;;;;25.55;45.03;98718.70;109447;1251;72651;-23
2023/07/12 12:09:52;;;;;;;2.40;1.80;;;;;;;25.91;44.24;98714.73;109440;1251;58826;-23
2023/07/12 12:12:20;;;;;;;2.10;1.90;;;;;;;25.63;44.01;98710.20;109508;1251;60010;-23
2023/07/12 12:14:49;;;;;;;2.40;2.10;;;;;;;25.51;45.97;98709.82;109235;1251;73077;-23
2023/07/12 12:17:18;;;;;;;3.90;1.80;;;;;;;25.66;44.52;98699.31;109522;1251;73747;-23
2023/07/12 12:19:49;;;;;;;2.50;1.80;;;;;;;26.01;43.76;98699.95;109273;1251;72683;-23
2023/07/12 12:22:19;;;;;;;4.60;1.80;;;;;;;26.42;43.75;98696.31;109402;1251;60066;-23
2023/07/12 12:24:48;;;;;;;7.60;2.10;;;;;;;26.49;42.80;98686.73;109334;1251;58796;-24
2023/07/12 12:27:27;;;;;;;1.80;1.70;;;;;;;26.47;41.19;98687.11;109205;1251;72224;-24
2023/07/12 12:29:55;;;;;;;1.60;1.50;;;;;;;26.81;41.54;98687.20;109238;1251;72205;-23
2023/07/12 12:32:25;;;;;;;4.90;1.80;;;;;;;27.01;42.55;98681.40;109442;1251;72662;-23
2023/07/12 12:34:53;;;;;;;3.90;1.70;;;;;;;27.23;40.76;98678.13;109475;1251;59037;-24
2023/07/12 12:37:29;;;;;;;2.10;1.60;;;;;;;27.32;41.44;98675.67;109592;1251;60015;-23
2023/07/12 12:40:04;;;;;;;6.50;1.90;;;;;;;27.68;41.17;98668.25;109291;1251;71865;-23